sensor_id;sensor_type;location;lat;lon;timestamp;P1;durP1;ratioP1;P2;durP2;ratioP2
38859;SDS011;24609;48.316;16.174;2023-08-21T00:01:20;12.95;;;11.75;;
38859;SDS011;24609;48.316;16.174;2023-08-21T00:03:46;13.43;;;12.13;;
38859;SDS011;24609;48.316;16.174;2023-08-21T00:06:12;13.68;;;12.57;;
38859;SDS011;24609;48.316;16.174;2023-08-21T00:08:37;13.70;;;12.40;;
38859;SDS011;24609;48.316;16.174;2023-08-21T00:11:03;14.23;;;13.02;;
38859;SDS011;24609;48.316;16.174;2023-08-21T00:13:28;15.15;;;13.65;;
38859;SDS011;24609;48.316;16.174;2023-08-21T00:15:54;13.40;;;12.30;;
38859;SDS011;24609;48.316;16.174;2023-08-21T00:18:20;11.82;;;10.93;;
38859;SDS011;24609;48.316;16.174;2023-08-21T00:20:46;11.82;;;10.63;;
38859;SDS011;24609;48.316;16.174;2023-08-21T00:23:12;12.85;;;11.75;;
38859;SDS011;24609;48.316;16.174;2023-08-21T00:25:38;11.57;;;10.43;;
38859;SDS011;24609;48.316;16.174;2023-08-21T00:28:03;13.70;;;12.40;;
38859;SDS011;24609;48.316;16.174;2023-08-21T00:30:29;13.90;;;12.52;;
38859;SDS011;24609;48.316;16.174;2023-08-21T00:32:55;13.18;;;11.90;;
38859;SDS011;24609;48.316;16.174;2023-08-21T00:35:21;15.52;;;14.02;;
38859;SDS011;24609;48.316;16.174;2023-08-21T00:37:46;15.32;;;14.02;;
38859;SDS011;24609;48.316;16.174;2023-08-21T00:40:12;15.05;;;13.65;;
38859;SDS011;24609;48.316;16.174;2023-08-21T00:42:38;13.25;;;11.95;;
38859;SDS011;24609;48.316;16.174;2023-08-21T00:45:04;13.88;;;12.57;;
38859;SDS011;24609;48.316;16.174;2023-08-21T00:47:33;16.13;;;14.43;;
38859;SDS011;24609;48.316;16.174;2023-08-21T00:49:59;14.10;;;12.73;;
38859;SDS011;24609;48.316;16.174;2023-08-21T00:52:25;14.50;;;12.95;;
38859;SDS011;24609;48.316;16.174;2023-08-21T00:54:51;13.45;;;12.18;;
38859;SDS011;24609;48.316;16.174;2023-08-21T00:57:17;13.05;;;11.90;;
38859;SDS011;24609;48.316;16.174;2023-08-21T00:59:45;13.38;;;12.15;;
38859;SDS011;24609;48.316;16.174;2023-08-21T01:02:11;13.90;;;12.60;;
38859;SDS011;24609;48.316;16.174;2023-08-21T01:04:37;14.43;;;13.18;;
38859;SDS011;24609;48.316;16.174;2023-08-21T01:07:03;15.30;;;13.90;;
38859;SDS011;24609;48.316;16.174;2023-08-21T01:09:45;13.70;;;12.40;;
38859;SDS011;24609;48.316;16.174;2023-08-21T01:15:17;14.70;;;13.20;;
38859;SDS011;24609;48.316;16.174;2023-08-21T01:17:43;13.15;;;12.02;;
38859;SDS011;24609;48.316;16.174;2023-08-21T01:20:12;13.82;;;12.60;;
38859;SDS011;24609;48.316;16.174;2023-08-21T01:22:39;15.30;;;14.00;;
38859;SDS011;24609;48.316;16.174;2023-08-21T01:25:10;14.40;;;13.00;;
38859;SDS011;24609;48.316;16.174;2023-08-21T01:27:36;13.98;;;12.68;;
38859;SDS011;24609;48.316;16.174;2023-08-21T01:30:03;16.13;;;14.63;;
38859;SDS011;24609;48.316;16.174;2023-08-21T01:35:18;15.77;;;14.27;;
38859;SDS011;24609;48.316;16.174;2023-08-21T01:37:45;15.45;;;13.85;;
38859;SDS011;24609;48.316;16.174;2023-08-21T01:40:12;14.57;;;13.18;;
38859;SDS011;24609;48.316;16.174;2023-08-21T01:42:44;14.15;;;12.85;;
38859;SDS011;24609;48.316;16.174;2023-08-21T01:45:10;12.85;;;11.60;;
38859;SDS011;24609;48.316;16.174;2023-08-21T01:47:35;14.27;;;12.48;;
38859;SDS011;24609;48.316;16.174;2023-08-21T01:50:01;15.75;;;14.18;;
38859;SDS011;24609;48.316;16.174;2023-08-21T01:52:27;12.98;;;11.75;;
38859;SDS011;24609;48.316;16.174;2023-08-21T01:54:52;14.05;;;12.65;;
38859;SDS011;24609;48.316;16.174;2023-08-21T01:57:18;13.32;;;12.00;;
38859;SDS011;24609;48.316;16.174;2023-08-21T01:59:44;14.45;;;12.70;;
38859;SDS011;24609;48.316;16.174;2023-08-21T02:02:09;13.85;;;12.55;;
38859;SDS011;24609;48.316;16.174;2023-08-21T02:04:35;14.48;;;13.18;;
38859;SDS011;24609;48.316;16.174;2023-08-21T02:07:01;13.10;;;12.00;;
38859;SDS011;24609;48.316;16.174;2023-08-21T02:09:26;14.43;;;13.23;;
38859;SDS011;24609;48.316;16.174;2023-08-21T02:11:52;13.27;;;11.80;;
38859;SDS011;24609;48.316;16.174;2023-08-21T02:14:18;13.77;;;12.43;;
38859;SDS011;24609;48.316;16.174;2023-08-21T02:16:43;13.88;;;12.48;;
38859;SDS011;24609;48.316;16.174;2023-08-21T02:19:09;16.92;;;15.32;;
38859;SDS011;24609;48.316;16.174;2023-08-21T02:21:35;17.90;;;16.23;;
38859;SDS011;24609;48.316;16.174;2023-08-21T02:24:01;16.48;;;14.88;;
38859;SDS011;24609;48.316;16.174;2023-08-21T02:26:27;15.02;;;13.63;;
38859;SDS011;24609;48.316;16.174;2023-08-21T02:28:53;14.15;;;12.65;;
38859;SDS011;24609;48.316;16.174;2023-08-21T02:31:18;18.15;;;16.45;;
38859;SDS011;24609;48.316;16.174;2023-08-21T02:33:44;15.98;;;13.48;;
38859;SDS011;24609;48.316;16.174;2023-08-21T02:36:10;16.30;;;14.48;;
38859;SDS011;24609;48.316;16.174;2023-08-21T02:38:35;20.90;;;17.10;;
38859;SDS011;24609;48.316;16.174;2023-08-21T02:41:01;18.10;;;16.50;;
38859;SDS011;24609;48.316;16.174;2023-08-21T02:43:27;17.40;;;15.80;;
38859;SDS011;24609;48.316;16.174;2023-08-21T02:45:52;16.40;;;14.57;;
38859;SDS011;24609;48.316;16.174;2023-08-21T02:48:18;17.38;;;15.68;;
38859;SDS011;24609;48.316;16.174;2023-08-21T02:50:44;16.00;;;14.50;;
38859;SDS011;24609;48.316;16.174;2023-08-21T02:53:09;16.30;;;14.45;;
38859;SDS011;24609;48.316;16.174;2023-08-21T02:55:35;18.10;;;16.42;;
38859;SDS011;24609;48.316;16.174;2023-08-21T02:58:01;17.25;;;15.55;;
38859;SDS011;24609;48.316;16.174;2023-08-21T03:00:26;16.70;;;14.30;;
38859;SDS011;24609;48.316;16.174;2023-08-21T03:02:52;16.35;;;14.75;;
38859;SDS011;24609;48.316;16.174;2023-08-21T03:05:18;15.82;;;14.38;;
38859;SDS011;24609;48.316;16.174;2023-08-21T03:07:43;15.70;;;14.10;;
38859;SDS011;24609;48.316;16.174;2023-08-21T03:10:09;15.65;;;14.15;;
38859;SDS011;24609;48.316;16.174;2023-08-21T03:12:35;16.10;;;14.70;;
38859;SDS011;24609;48.316;16.174;2023-08-21T03:15:01;16.55;;;14.95;;
38859;SDS011;24609;48.316;16.174;2023-08-21T03:17:27;17.42;;;15.90;;
38859;SDS011;24609;48.316;16.174;2023-08-21T03:19:52;17.38;;;15.75;;
38859;SDS011;24609;48.316;16.174;2023-08-21T03:22:18;16.10;;;14.52;;
38859;SDS011;24609;48.316;16.174;2023-08-21T03:24:44;14.65;;;13.20;;
38859;SDS011;24609;48.316;16.174;2023-08-21T03:27:09;16.70;;;15.05;;
38859;SDS011;24609;48.316;16.174;2023-08-21T03:29:35;16.40;;;14.02;;
38859;SDS011;24609;48.316;16.174;2023-08-21T03:32:01;16.38;;;14.88;;
38859;SDS011;24609;48.316;16.174;2023-08-21T03:34:26;15.40;;;13.90;;
38859;SDS011;24609;48.316;16.174;2023-08-21T03:36:52;20.17;;;18.08;;
38859;SDS011;24609;48.316;16.174;2023-08-21T03:39:18;17.88;;;16.17;;
38859;SDS011;24609;48.316;16.174;2023-08-21T03:41:43;16.05;;;14.55;;
38859;SDS011;24609;48.316;16.174;2023-08-21T03:44:09;16.13;;;13.27;;
38859;SDS011;24609;48.316;16.174;2023-08-21T03:46:34;15.00;;;13.50;;
38859;SDS011;24609;48.316;16.174;2023-08-21T03:49:00;15.73;;;14.23;;
38859;SDS011;24609;48.316;16.174;2023-08-21T03:51:26;15.73;;;14.20;;
38859;SDS011;24609;48.316;16.174;2023-08-21T03:53:51;15.93;;;14.32;;
38859;SDS011;24609;48.316;16.174;2023-08-21T03:56:17;16.88;;;15.10;;
38859;SDS011;24609;48.316;16.174;2023-08-21T03:58:44;15.77;;;14.20;;
38859;SDS011;24609;48.316;16.174;2023-08-21T04:01:09;15.75;;;14.18;;
38859;SDS011;24609;48.316;16.174;2023-08-21T04:03:35;15.98;;;14.38;;
38859;SDS011;24609;48.316;16.174;2023-08-21T04:06:01;16.40;;;14.88;;
38859;SDS011;24609;48.316;16.174;2023-08-21T04:08:27;18.08;;;15.75;;
38859;SDS011;24609;48.316;16.174;2023-08-21T04:10:52;19.23;;;17.20;;
38859;SDS011;24609;48.316;16.174;2023-08-21T04:13:18;15.23;;;13.68;;
38859;SDS011;24609;48.316;16.174;2023-08-21T04:15:45;14.50;;;13.20;;
38859;SDS011;24609;48.316;16.174;2023-08-21T04:18:11;15.00;;;13.55;;
38859;SDS011;24609;48.316;16.174;2023-08-21T04:20:37;14.75;;;13.13;;
38859;SDS011;24609;48.316;16.174;2023-08-21T04:23:02;21.50;;;17.75;;
38859;SDS011;24609;48.316;16.174;2023-08-21T04:25:28;15.50;;;13.70;;
38859;SDS011;24609;48.316;16.174;2023-08-21T04:27:54;14.80;;;13.48;;
38859;SDS011;24609;48.316;16.174;2023-08-21T04:30:19;14.40;;;12.95;;
38859;SDS011;24609;48.316;16.174;2023-08-21T04:32:45;15.70;;;14.15;;
38859;SDS011;24609;48.316;16.174;2023-08-21T04:35:12;16.55;;;15.05;;
38859;SDS011;24609;48.316;16.174;2023-08-21T04:37:42;17.05;;;15.32;;
38859;SDS011;24609;48.316;16.174;2023-08-21T04:40:09;18.15;;;16.60;;
38859;SDS011;24609;48.316;16.174;2023-08-21T04:42:36;17.67;;;15.95;;
38859;SDS011;24609;48.316;16.174;2023-08-21T04:45:01;16.80;;;15.32;;
38859;SDS011;24609;48.316;16.174;2023-08-21T04:47:27;17.73;;;16.15;;
38859;SDS011;24609;48.316;16.174;2023-08-21T04:49:54;15.93;;;13.55;;
38859;SDS011;24609;48.316;16.174;2023-08-21T04:52:20;15.20;;;13.73;;
38859;SDS011;24609;48.316;16.174;2023-08-21T04:54:47;16.45;;;14.95;;
38859;SDS011;24609;48.316;16.174;2023-08-21T04:57:13;15.25;;;13.85;;
38859;SDS011;24609;48.316;16.174;2023-08-21T04:59:40;18.02;;;16.13;;
38859;SDS011;24609;48.316;16.174;2023-08-21T05:02:06;19.10;;;16.52;;
38859;SDS011;24609;48.316;16.174;2023-08-21T05:04:32;19.05;;;16.75;;
38859;SDS011;24609;48.316;16.174;2023-08-21T05:06:58;20.00;;;17.88;;
38859;SDS011;24609;48.316;16.174;2023-08-21T05:09:23;23.98;;;21.42;;
38859;SDS011;24609;48.316;16.174;2023-08-21T05:11:49;18.80;;;16.98;;
38859;SDS011;24609;48.316;16.174;2023-08-21T05:14:15;19.48;;;16.77;;
38859;SDS011;24609;48.316;16.174;2023-08-21T05:16:40;18.17;;;16.48;;
38859;SDS011;24609;48.316;16.174;2023-08-21T05:19:06;18.02;;;16.10;;
38859;SDS011;24609;48.316;16.174;2023-08-21T05:21:32;20.40;;;18.55;;
38859;SDS011;24609;48.316;16.174;2023-08-21T05:23:58;21.13;;;19.23;;
38859;SDS011;24609;48.316;16.174;2023-08-21T05:26:23;22.52;;;20.30;;
38859;SDS011;24609;48.316;16.174;2023-08-21T05:28:49;21.80;;;19.77;;
38859;SDS011;24609;48.316;16.174;2023-08-21T05:31:15;22.20;;;20.00;;
38859;SDS011;24609;48.316;16.174;2023-08-21T05:33:40;23.70;;;21.40;;
38859;SDS011;24609;48.316;16.174;2023-08-21T05:36:06;21.10;;;19.27;;
38859;SDS011;24609;48.316;16.174;2023-08-21T05:38:32;21.08;;;18.98;;
38859;SDS011;24609;48.316;16.174;2023-08-21T05:40:57;19.30;;;17.27;;
38859;SDS011;24609;48.316;16.174;2023-08-21T05:43:23;20.08;;;17.65;;
38859;SDS011;24609;48.316;16.174;2023-08-21T05:45:50;18.52;;;16.73;;
38859;SDS011;24609;48.316;16.174;2023-08-21T05:48:15;17.95;;;16.35;;
38859;SDS011;24609;48.316;16.174;2023-08-21T05:50:44;17.77;;;16.02;;
38859;SDS011;24609;48.316;16.174;2023-08-21T05:53:10;20.55;;;18.42;;
38859;SDS011;24609;48.316;16.174;2023-08-21T05:55:39;21.35;;;19.08;;
38859;SDS011;24609;48.316;16.174;2023-08-21T05:58:05;21.40;;;18.98;;
38859;SDS011;24609;48.316;16.174;2023-08-21T06:00:32;21.75;;;19.65;;
38859;SDS011;24609;48.316;16.174;2023-08-21T06:02:58;21.27;;;19.27;;
38859;SDS011;24609;48.316;16.174;2023-08-21T06:05:24;20.98;;;18.98;;
38859;SDS011;24609;48.316;16.174;2023-08-21T06:07:49;21.58;;;17.92;;
38859;SDS011;24609;48.316;16.174;2023-08-21T06:10:16;20.23;;;18.17;;
38859;SDS011;24609;48.316;16.174;2023-08-21T06:12:42;16.08;;;14.52;;
38859;SDS011;24609;48.316;16.174;2023-08-21T06:15:08;19.60;;;17.60;;
38859;SDS011;24609;48.316;16.174;2023-08-21T06:17:34;16.60;;;15.07;;
38859;SDS011;24609;48.316;16.174;2023-08-21T06:20:00;15.30;;;13.70;;
38859;SDS011;24609;48.316;16.174;2023-08-21T06:22:28;18.10;;;16.30;;
38859;SDS011;24609;48.316;16.174;2023-08-21T06:24:53;17.83;;;15.45;;
38859;SDS011;24609;48.316;16.174;2023-08-21T06:27:19;14.80;;;13.48;;
38859;SDS011;24609;48.316;16.174;2023-08-21T06:29:45;15.23;;;13.63;;
38859;SDS011;24609;48.316;16.174;2023-08-21T06:32:10;13.15;;;11.95;;
38859;SDS011;24609;48.316;16.174;2023-08-21T06:34:36;12.50;;;11.25;;
38859;SDS011;24609;48.316;16.174;2023-08-21T06:37:02;12.80;;;11.60;;
38859;SDS011;24609;48.316;16.174;2023-08-21T06:39:28;14.32;;;13.13;;
38859;SDS011;24609;48.316;16.174;2023-08-21T06:41:54;14.95;;;13.65;;
38859;SDS011;24609;48.316;16.174;2023-08-21T06:44:19;15.18;;;13.68;;
38859;SDS011;24609;48.316;16.174;2023-08-21T06:46:45;12.25;;;11.13;;
38859;SDS011;24609;48.316;16.174;2023-08-21T06:49:11;11.63;;;10.52;;
38859;SDS011;24609;48.316;16.174;2023-08-21T06:51:36;11.38;;;10.30;;
38859;SDS011;24609;48.316;16.174;2023-08-21T06:54:02;12.57;;;11.48;;
38859;SDS011;24609;48.316;16.174;2023-08-21T06:56:28;12.85;;;11.73;;
38859;SDS011;24609;48.316;16.174;2023-08-21T06:58:53;15.65;;;13.20;;
38859;SDS011;24609;48.316;16.174;2023-08-21T07:01:20;13.70;;;12.48;;
38859;SDS011;24609;48.316;16.174;2023-08-21T07:03:46;12.93;;;11.82;;
38859;SDS011;24609;48.316;16.174;2023-08-21T07:06:12;13.52;;;12.35;;
38859;SDS011;24609;48.316;16.174;2023-08-21T07:08:38;13.48;;;12.23;;
38859;SDS011;24609;48.316;16.174;2023-08-21T07:11:06;14.13;;;11.38;;
38859;SDS011;24609;48.316;16.174;2023-08-21T07:13:35;12.57;;;9.75;;
38859;SDS011;24609;48.316;16.174;2023-08-21T07:16:01;10.77;;;9.27;;
38859;SDS011;24609;48.316;16.174;2023-08-21T07:18:28;10.38;;;9.32;;
38859;SDS011;24609;48.316;16.174;2023-08-21T07:20:57;11.57;;;10.50;;
38859;SDS011;24609;48.316;16.174;2023-08-21T07:23:23;12.10;;;10.88;;
38859;SDS011;24609;48.316;16.174;2023-08-21T07:25:49;13.77;;;12.43;;
38859;SDS011;24609;48.316;16.174;2023-08-21T07:28:14;11.43;;;10.23;;
38859;SDS011;24609;48.316;16.174;2023-08-21T07:30:40;10.38;;;9.48;;
38859;SDS011;24609;48.316;16.174;2023-08-21T07:33:06;10.43;;;9.43;;
38859;SDS011;24609;48.316;16.174;2023-08-21T07:35:32;9.45;;;8.63;;
38859;SDS011;24609;48.316;16.174;2023-08-21T07:37:58;10.23;;;9.32;;
38859;SDS011;24609;48.316;16.174;2023-08-21T07:40:24;10.32;;;9.38;;
38859;SDS011;24609;48.316;16.174;2023-08-21T07:42:49;9.93;;;9.05;;
38859;SDS011;24609;48.316;16.174;2023-08-21T07:45:15;9.73;;;8.82;;
38859;SDS011;24609;48.316;16.174;2023-08-21T07:47:41;9.93;;;9.07;;
38859;SDS011;24609;48.316;16.174;2023-08-21T07:50:07;9.88;;;8.98;;
38859;SDS011;24609;48.316;16.174;2023-08-21T07:52:34;11.50;;;10.45;;
38859;SDS011;24609;48.316;16.174;2023-08-21T07:55:00;10.85;;;9.85;;
38859;SDS011;24609;48.316;16.174;2023-08-21T07:57:26;9.27;;;8.48;;
38859;SDS011;24609;48.316;16.174;2023-08-21T07:59:55;10.93;;;10.13;;
38859;SDS011;24609;48.316;16.174;2023-08-21T08:02:21;12.73;;;8.85;;
38859;SDS011;24609;48.316;16.174;2023-08-21T08:04:48;10.05;;;9.15;;
38859;SDS011;24609;48.316;16.174;2023-08-21T08:07:13;11.25;;;10.15;;
38859;SDS011;24609;48.316;16.174;2023-08-21T08:09:39;9.95;;;8.55;;
38859;SDS011;24609;48.316;16.174;2023-08-21T08:12:05;10.27;;;9.45;;
38859;SDS011;24609;48.316;16.174;2023-08-21T08:14:31;11.05;;;9.95;;
38859;SDS011;24609;48.316;16.174;2023-08-21T08:16:56;10.05;;;9.18;;
38859;SDS011;24609;48.316;16.174;2023-08-21T08:19:22;11.43;;;9.82;;
38859;SDS011;24609;48.316;16.174;2023-08-21T08:21:48;11.77;;;10.63;;
38859;SDS011;24609;48.316;16.174;2023-08-21T08:24:14;11.50;;;10.40;;
38859;SDS011;24609;48.316;16.174;2023-08-21T08:26:39;10.60;;;9.45;;
38859;SDS011;24609;48.316;16.174;2023-08-21T08:29:07;11.63;;;9.07;;
38859;SDS011;24609;48.316;16.174;2023-08-21T08:31:33;9.48;;;8.65;;
38859;SDS011;24609;48.316;16.174;2023-08-21T08:33:58;11.40;;;9.82;;
38859;SDS011;24609;48.316;16.174;2023-08-21T08:36:24;13.02;;;9.80;;
38859;SDS011;24609;48.316;16.174;2023-08-21T08:38:50;11.30;;;9.27;;
38859;SDS011;24609;48.316;16.174;2023-08-21T08:41:25;11.23;;;9.60;;
38859;SDS011;24609;48.316;16.174;2023-08-21T08:44:08;9.57;;;8.77;;
38859;SDS011;24609;48.316;16.174;2023-08-21T08:46:35;10.00;;;9.20;;
38859;SDS011;24609;48.316;16.174;2023-08-21T08:49:02;11.95;;;10.15;;
38859;SDS011;24609;48.316;16.174;2023-08-21T08:51:29;12.10;;;9.75;;
38859;SDS011;24609;48.316;16.174;2023-08-21T08:53:57;9.38;;;8.45;;
38859;SDS011;24609;48.316;16.174;2023-08-21T08:56:24;8.90;;;8.20;;
38859;SDS011;24609;48.316;16.174;2023-08-21T08:58:50;10.43;;;9.63;;
38859;SDS011;24609;48.316;16.174;2023-08-21T09:01:16;10.90;;;9.75;;
38859;SDS011;24609;48.316;16.174;2023-08-21T09:03:41;9.65;;;8.73;;
38859;SDS011;24609;48.316;16.174;2023-08-21T09:06:07;12.48;;;9.07;;
38859;SDS011;24609;48.316;16.174;2023-08-21T09:08:33;8.77;;;8.07;;
38859;SDS011;24609;48.316;16.174;2023-08-21T09:11:02;9.00;;;8.30;;
38859;SDS011;24609;48.316;16.174;2023-08-21T09:13:31;8.77;;;7.88;;
38859;SDS011;24609;48.316;16.174;2023-08-21T09:15:58;9.05;;;8.10;;
38859;SDS011;24609;48.316;16.174;2023-08-21T09:18:24;7.93;;;7.22;;
38859;SDS011;24609;48.316;16.174;2023-08-21T09:20:50;9.48;;;8.57;;
38859;SDS011;24609;48.316;16.174;2023-08-21T09:23:16;9.85;;;8.45;;
38859;SDS011;24609;48.316;16.174;2023-08-21T09:25:43;10.85;;;9.18;;
38859;SDS011;24609;48.316;16.174;2023-08-21T09:28:12;11.40;;;8.35;;
38859;SDS011;24609;48.316;16.174;2023-08-21T09:30:48;7.70;;;7.13;;
38859;SDS011;24609;48.316;16.174;2023-08-21T09:33:22;9.75;;;8.73;;
38859;SDS011;24609;48.316;16.174;2023-08-21T09:35:51;9.30;;;8.38;;
38859;SDS011;24609;48.316;16.174;2023-08-21T09:38:17;9.68;;;8.63;;
38859;SDS011;24609;48.316;16.174;2023-08-21T09:40:50;9.07;;;8.23;;
38859;SDS011;24609;48.316;16.174;2023-08-21T09:43:17;11.93;;;7.95;;
38859;SDS011;24609;48.316;16.174;2023-08-21T09:45:47;8.68;;;7.25;;
38859;SDS011;24609;48.316;16.174;2023-08-21T09:48:13;8.05;;;7.28;;
38859;SDS011;24609;48.316;16.174;2023-08-21T09:50:39;8.70;;;7.57;;
38859;SDS011;24609;48.316;16.174;2023-08-21T09:53:09;9.82;;;7.18;;
38859;SDS011;24609;48.316;16.174;2023-08-21T09:55:35;8.75;;;7.88;;
38859;SDS011;24609;48.316;16.174;2023-08-21T09:58:01;7.97;;;7.18;;
38859;SDS011;24609;48.316;16.174;2023-08-21T10:00:31;8.23;;;7.40;;
38859;SDS011;24609;48.316;16.174;2023-08-21T10:03:03;7.57;;;6.68;;
38859;SDS011;24609;48.316;16.174;2023-08-21T10:05:33;8.63;;;6.38;;
38859;SDS011;24609;48.316;16.174;2023-08-21T10:08:01;8.90;;;7.18;;
38859;SDS011;24609;48.316;16.174;2023-08-21T10:10:31;7.97;;;7.32;;
38859;SDS011;24609;48.316;16.174;2023-08-21T10:13:02;7.07;;;6.47;;
38859;SDS011;24609;48.316;16.174;2023-08-21T10:15:29;8.00;;;6.55;;
38859;SDS011;24609;48.316;16.174;2023-08-21T10:17:55;9.02;;;7.65;;
38859;SDS011;24609;48.316;16.174;2023-08-21T10:20:22;7.28;;;6.65;;
38859;SDS011;24609;48.316;16.174;2023-08-21T10:22:52;7.50;;;6.80;;
38859;SDS011;24609;48.316;16.174;2023-08-21T10:25:21;6.60;;;6.00;;
38859;SDS011;24609;48.316;16.174;2023-08-21T10:27:51;6.32;;;5.70;;
38859;SDS011;24609;48.316;16.174;2023-08-21T10:30:20;6.53;;;5.38;;
38859;SDS011;24609;48.316;16.174;2023-08-21T10:32:51;6.57;;;5.78;;
38859;SDS011;24609;48.316;16.174;2023-08-21T10:35:22;5.90;;;5.10;;
38859;SDS011;24609;48.316;16.174;2023-08-21T10:40:38;6.72;;;5.03;;
38859;SDS011;24609;48.316;16.174;2023-08-21T10:43:04;5.25;;;4.75;;
38859;SDS011;24609;48.316;16.174;2023-08-21T10:46:02;5.22;;;4.68;;
38859;SDS011;24609;48.316;16.174;2023-08-21T10:48:28;5.65;;;4.65;;
38859;SDS011;24609;48.316;16.174;2023-08-21T10:50:54;5.82;;;4.82;;
38859;SDS011;24609;48.316;16.174;2023-08-21T10:53:20;5.90;;;5.50;;
38859;SDS011;24609;48.316;16.174;2023-08-21T10:55:55;6.32;;;5.55;;
38859;SDS011;24609;48.316;16.174;2023-08-21T10:58:21;6.47;;;4.55;;
38859;SDS011;24609;48.316;16.174;2023-08-21T11:00:47;4.85;;;4.53;;
38859;SDS011;24609;48.316;16.174;2023-08-21T11:03:21;5.88;;;5.22;;
38859;SDS011;24609;48.316;16.174;2023-08-21T11:05:59;5.25;;;4.75;;
38859;SDS011;24609;48.316;16.174;2023-08-21T11:08:28;5.72;;;5.22;;
38859;SDS011;24609;48.316;16.174;2023-08-21T11:10:55;5.20;;;4.80;;
38859;SDS011;24609;48.316;16.174;2023-08-21T11:13:23;5.50;;;5.10;;
38859;SDS011;24609;48.316;16.174;2023-08-21T11:15:49;5.93;;;5.32;;
38859;SDS011;24609;48.316;16.174;2023-08-21T11:18:28;7.32;;;6.13;;
38859;SDS011;24609;48.316;16.174;2023-08-21T11:21:02;6.13;;;5.63;;
38859;SDS011;24609;48.316;16.174;2023-08-21T11:23:37;6.97;;;6.25;;
38859;SDS011;24609;48.316;16.174;2023-08-21T11:26:05;6.18;;;5.57;;
38859;SDS011;24609;48.316;16.174;2023-08-21T11:28:32;5.65;;;5.15;;
38859;SDS011;24609;48.316;16.174;2023-08-21T11:30:58;5.95;;;5.35;;
38859;SDS011;24609;48.316;16.174;2023-08-21T11:33:25;6.55;;;5.30;;
38859;SDS011;24609;48.316;16.174;2023-08-21T11:38:19;5.53;;;4.90;;
38859;SDS011;24609;48.316;16.174;2023-08-21T11:40:53;5.88;;;5.30;;
38859;SDS011;24609;48.316;16.174;2023-08-21T11:43:44;6.05;;;5.40;;
38859;SDS011;24609;48.316;16.174;2023-08-21T11:46:09;5.38;;;4.88;;
38859;SDS011;24609;48.316;16.174;2023-08-21T11:48:38;5.83;;;5.10;;
38859;SDS011;24609;48.316;16.174;2023-08-21T11:51:05;6.45;;;4.80;;
38859;SDS011;24609;48.316;16.174;2023-08-21T11:53:35;6.18;;;5.10;;
38859;SDS011;24609;48.316;16.174;2023-08-21T11:56:12;4.80;;;4.40;;
38859;SDS011;24609;48.316;16.174;2023-08-21T11:58:39;5.20;;;4.70;;
38859;SDS011;24609;48.316;16.174;2023-08-21T12:01:06;5.53;;;5.03;;
38859;SDS011;24609;48.316;16.174;2023-08-21T12:03:35;5.63;;;5.05;;
38859;SDS011;24609;48.316;16.174;2023-08-21T12:06:06;7.25;;;4.85;;
38859;SDS011;24609;48.316;16.174;2023-08-21T12:08:33;6.50;;;4.95;;
38859;SDS011;24609;48.316;16.174;2023-08-21T12:10:59;6.10;;;4.70;;
38859;SDS011;24609;48.316;16.174;2023-08-21T12:13:25;4.55;;;4.20;;
38859;SDS011;24609;48.316;16.174;2023-08-21T12:15:50;7.22;;;5.20;;
38859;SDS011;24609;48.316;16.174;2023-08-21T12:18:16;5.32;;;4.78;;
38859;SDS011;24609;48.316;16.174;2023-08-21T12:20:42;7.35;;;4.90;;
38859;SDS011;24609;48.316;16.174;2023-08-21T12:23:07;6.63;;;4.60;;
38859;SDS011;24609;48.316;16.174;2023-08-21T12:25:33;6.03;;;4.88;;
38859;SDS011;24609;48.316;16.174;2023-08-21T12:27:59;4.75;;;4.22;;
38859;SDS011;24609;48.316;16.174;2023-08-21T12:30:24;5.70;;;4.53;;
38859;SDS011;24609;48.316;16.174;2023-08-21T12:32:50;4.72;;;4.32;;
38859;SDS011;24609;48.316;16.174;2023-08-21T12:35:16;6.15;;;5.03;;
38859;SDS011;24609;48.316;16.174;2023-08-21T12:37:42;4.80;;;4.40;;
38859;SDS011;24609;48.316;16.174;2023-08-21T12:40:08;5.10;;;4.63;;
38859;SDS011;24609;48.316;16.174;2023-08-21T12:42:34;5.70;;;4.95;;
38859;SDS011;24609;48.316;16.174;2023-08-21T12:44:59;5.70;;;4.80;;
38859;SDS011;24609;48.316;16.174;2023-08-21T12:47:25;6.95;;;4.22;;
38859;SDS011;24609;48.316;16.174;2023-08-21T12:49:51;4.75;;;4.30;;
38859;SDS011;24609;48.316;16.174;2023-08-21T12:52:16;5.32;;;4.20;;
38859;SDS011;24609;48.316;16.174;2023-08-21T12:54:42;5.32;;;4.72;;
38859;SDS011;24609;48.316;16.174;2023-08-21T12:57:08;8.18;;;4.60;;
38859;SDS011;24609;48.316;16.174;2023-08-21T12:59:36;5.22;;;4.72;;
38859;SDS011;24609;48.316;16.174;2023-08-21T13:02:02;7.35;;;5.00;;
38859;SDS011;24609;48.316;16.174;2023-08-21T13:04:29;5.23;;;4.63;;
38859;SDS011;24609;48.316;16.174;2023-08-21T13:06:54;8.90;;;5.03;;
38859;SDS011;24609;48.316;16.174;2023-08-21T13:09:20;5.07;;;4.55;;
38859;SDS011;24609;48.316;16.174;2023-08-21T13:11:46;5.10;;;4.70;;
38859;SDS011;24609;48.316;16.174;2023-08-21T13:14:12;4.80;;;4.40;;
38859;SDS011;24609;48.316;16.174;2023-08-21T13:16:37;5.57;;;5.03;;
38859;SDS011;24609;48.316;16.174;2023-08-21T13:19:03;4.93;;;4.53;;
38859;SDS011;24609;48.316;16.174;2023-08-21T13:21:29;4.80;;;4.00;;
38859;SDS011;24609;48.316;16.174;2023-08-21T13:23:55;4.50;;;4.10;;
38859;SDS011;24609;48.316;16.174;2023-08-21T13:26:20;4.38;;;4.07;;
38859;SDS011;24609;48.316;16.174;2023-08-21T13:28:46;4.82;;;4.28;;
38859;SDS011;24609;48.316;16.174;2023-08-21T13:31:12;4.80;;;4.03;;
38859;SDS011;24609;48.316;16.174;2023-08-21T13:33:47;4.68;;;4.30;;
38859;SDS011;24609;48.316;16.174;2023-08-21T13:36:14;6.60;;;4.60;;
38859;SDS011;24609;48.316;16.174;2023-08-21T13:41:06;5.38;;;4.95;;
38859;SDS011;24609;48.316;16.174;2023-08-21T13:43:33;4.22;;;3.85;;
38859;SDS011;24609;48.316;16.174;2023-08-21T13:46:02;3.88;;;3.30;;
38859;SDS011;24609;48.316;16.174;2023-08-21T13:48:31;4.65;;;3.47;;
38859;SDS011;24609;48.316;16.174;2023-08-21T13:50:57;5.90;;;3.57;;
38859;SDS011;24609;48.316;16.174;2023-08-21T13:53:23;3.88;;;3.50;;
38859;SDS011;24609;48.316;16.174;2023-08-21T13:55:52;4.07;;;3.28;;
38859;SDS011;24609;48.316;16.174;2023-08-21T13:58:18;4.70;;;3.92;;
38859;SDS011;24609;48.316;16.174;2023-08-21T14:00:43;3.65;;;3.30;;
38859;SDS011;24609;48.316;16.174;2023-08-21T14:03:09;3.53;;;3.20;;
38859;SDS011;24609;48.316;16.174;2023-08-21T14:05:35;3.92;;;3.58;;
38859;SDS011;24609;48.316;16.174;2023-08-21T14:08:01;4.53;;;3.75;;
38859;SDS011;24609;48.316;16.174;2023-08-21T14:10:27;3.65;;;3.35;;
38859;SDS011;24609;48.316;16.174;2023-08-21T14:12:53;3.60;;;3.30;;
38859;SDS011;24609;48.316;16.174;2023-08-21T14:15:18;3.47;;;3.20;;
38859;SDS011;24609;48.316;16.174;2023-08-21T14:17:44;4.13;;;3.35;;
38859;SDS011;24609;48.316;16.174;2023-08-21T14:20:10;3.47;;;3.28;;
38859;SDS011;24609;48.316;16.174;2023-08-21T14:22:36;4.15;;;3.83;;
38859;SDS011;24609;48.316;16.174;2023-08-21T14:25:02;4.68;;;3.55;;
38859;SDS011;24609;48.316;16.174;2023-08-21T14:27:32;4.93;;;3.47;;
38859;SDS011;24609;48.316;16.174;2023-08-21T14:29:58;4.75;;;3.47;;
38859;SDS011;24609;48.316;16.174;2023-08-21T14:32:24;4.18;;;3.40;;